Terminal Aerodrome Forecast
Issued by NWS

Home | Current Version | Previous Version | Graphics & Text | Print | Product List | Glossary On
Versions: 1 2 3 4 5 6 7 8 9 10 11 12 13 14 15 16 17 18 19 20 21
319
FTUS43 KPAH 141720
TAFCGI
TAF
KCGI 141720Z 1418/1518 15008KT 6SM -FZRA BR SCT020 OVC050
      TEMPO 1418/1422 3SM -FZRA BR OVC010
     FM150000 VRB03KT 4SM BR OVC020 PROB30 1503/1506 2SM -FZRA BR
     FM150600 VRB03KT 5SM BR OVC020=

USA.gov is the U.S. government's official web portal to all federal, state and local government web resources and services.